createdAt,value
2023-03-08T00:03:42.121Z,25.00
2023-03-08T00:08:43.937Z,21.40
2023-03-08T00:13:45.695Z,21.85
2023-03-08T00:18:47.866Z,22.90
2023-03-08T00:23:52.627Z,22.67
2023-03-08T00:28:54.455Z,20.23
2023-03-08T00:33:56.223Z,20.92
2023-03-08T00:38:58.179Z,19.90
2023-03-08T00:43:59.824Z,19.40
2023-03-08T00:49:04.306Z,20.02
2023-03-08T00:54:06.263Z,20.30
2023-03-08T00:59:07.978Z,22.17
2023-03-08T01:04:10.159Z,22.80
2023-03-08T01:09:12.672Z,21.17
2023-03-08T01:14:14.455Z,23.88
2023-03-08T01:19:16.083Z,17.23
2023-03-08T01:24:17.691Z,13.70
2023-03-08T01:29:20.192Z,11.10
2023-03-08T01:34:21.784Z,10.48
2023-03-08T01:39:23.414Z,8.90
2023-03-08T01:44:25.060Z,8.48
2023-03-08T01:49:33.450Z,8.82
2023-03-08T01:54:47.992Z,7.55
2023-03-08T01:59:51.678Z,7.72
2023-03-08T02:04:53.709Z,8.65
2023-03-08T02:09:55.457Z,8.45
2023-03-08T02:14:57.768Z,7.55
2023-03-08T02:20:13.952Z,9.00
2023-03-08T02:25:17.205Z,8.63
2023-03-08T02:30:25.285Z,7.80
2023-03-08T02:35:29.165Z,8.25
2023-03-08T02:40:30.773Z,8.75
2023-03-08T02:45:34.128Z,8.70
2023-03-08T02:50:39.363Z,7.78
2023-03-08T02:55:42.781Z,7.97
2023-03-08T03:00:46.280Z,7.80
2023-03-08T03:05:47.957Z,7.57
2023-03-08T03:10:54.569Z,8.30
2023-03-08T03:15:56.306Z,8.93
2023-03-08T03:21:03.865Z,8.90
2023-03-08T03:26:06.536Z,8.68
2023-03-08T03:31:12.675Z,8.43
2023-03-08T03:36:17.361Z,8.80
2023-03-08T03:41:21.870Z,8.65
2023-03-08T03:46:27.486Z,8.60
2023-03-08T03:51:32.085Z,9.23
2023-03-08T03:56:58.104Z,9.23
2023-03-08T04:02:02.593Z,9.13
2023-03-08T04:07:12.868Z,9.13
2023-03-08T04:17:21.226Z,9.05
2023-03-08T04:22:26.847Z,9.30
2023-03-08T04:27:36.193Z,9.55
2023-03-08T04:32:38.121Z,9.48
2023-03-08T04:37:40.803Z,9.38
2023-03-08T04:42:46.523Z,9.10
2023-03-08T04:47:52.008Z,8.38
2023-03-08T04:52:54.905Z,8.40
2023-03-08T04:57:56.700Z,7.50
2023-03-08T05:02:59.562Z,8.45
2023-03-08T05:08:05.256Z,7.65
2023-03-08T05:13:08.798Z,8.15
2023-03-08T05:18:10.702Z,8.90
2023-03-08T05:23:13.520Z,9.55
2023-03-08T05:28:17.034Z,9.25
2023-03-08T05:33:21.124Z,9.38
2023-03-08T05:38:23.205Z,9.40
2023-03-08T05:43:24.927Z,10.38
2023-03-08T05:48:27.004Z,9.88
2023-03-08T05:53:28.793Z,9.35
2023-03-08T05:58:30.889Z,9.65
2023-03-08T06:03:34.999Z,9.65
2023-03-08T06:08:37.292Z,9.95
2023-03-08T06:13:41.717Z,9.85
2023-03-08T06:18:44.243Z,10.05
2023-03-08T06:23:49.034Z,10.32
2023-03-08T06:28:50.956Z,10.15
2023-03-08T06:33:53.179Z,9.88
2023-03-08T06:39:00.052Z,9.68
2023-03-08T06:44:02.186Z,9.48
2023-03-08T06:49:04.331Z,9.55
2023-03-08T06:54:08.128Z,9.32
2023-03-08T06:59:09.856Z,8.48
2023-03-08T07:04:11.771Z,8.85
2023-03-08T07:09:14.012Z,8.60
2023-03-08T07:14:16.294Z,9.50
2023-03-08T07:19:17.893Z,8.18
2023-03-08T07:24:19.687Z,8.48
2023-03-08T07:29:21.332Z,7.88
2023-03-08T07:34:23.138Z,7.65
2023-03-08T07:39:24.804Z,7.30
2023-03-08T07:44:26.420Z,7.35
2023-03-08T07:49:28.209Z,7.75
2023-03-08T07:54:29.974Z,7.00
2023-03-08T07:59:32.133Z,6.25
2023-03-08T08:04:35.749Z,6.55
2023-03-08T08:09:37.645Z,6.40
2023-03-08T08:14:39.265Z,5.82
2023-03-08T08:19:40.896Z,5.03
2023-03-08T08:24:42.570Z,5.57
2023-03-08T08:29:46.280Z,6.53
2023-03-08T08:34:47.952Z,5.82
2023-03-08T08:39:49.576Z,4.38
2023-03-08T08:44:53.303Z,4.45
2023-03-08T08:49:54.944Z,4.47
2023-03-08T08:54:57.902Z,4.72
2023-03-08T08:59:59.599Z,4.25
2023-03-08T09:05:01.270Z,4.55
2023-03-08T09:10:03.236Z,4.30
2023-03-08T09:15:06.220Z,4.82
2023-03-08T09:20:09.624Z,4.63
2023-03-08T09:25:12.189Z,4.55
2023-03-08T09:30:14.784Z,4.28
2023-03-08T09:35:17.164Z,4.32
2023-03-08T09:40:21.277Z,4.40
2023-03-08T09:45:29.624Z,4.07
2023-03-08T09:50:44.273Z,4.17
2023-03-08T09:55:52.821Z,4.28
2023-03-08T10:01:06.523Z,4.03
2023-03-08T10:06:44.163Z,4.55
2023-03-08T10:12:00.686Z,4.50
2023-03-08T10:17:13.001Z,5.15
2023-03-08T10:22:29.807Z,4.50
2023-03-08T10:27:34.766Z,4.53
2023-03-08T10:32:43.820Z,4.38
2023-03-08T10:37:51.003Z,5.13
2023-03-08T10:43:00.925Z,5.80
2023-03-08T10:48:04.997Z,6.45
2023-03-08T10:53:16.045Z,8.05
2023-03-08T10:58:29.701Z,7.63
2023-03-08T11:03:32.388Z,7.85
2023-03-08T11:08:39.913Z,6.93
2023-03-08T11:13:49.556Z,6.82
2023-03-08T11:19:06.618Z,8.40
2023-03-08T11:24:27.550Z,9.48
2023-03-08T11:29:29.135Z,12.15
2023-03-08T11:34:46.337Z,11.43
2023-03-08T11:40:01.307Z,12.20
2023-03-08T11:45:18.635Z,13.32
2023-03-08T11:50:30.489Z,13.65
2023-03-08T11:56:02.165Z,11.82
2023-03-08T12:01:14.942Z,12.70
2023-03-08T12:06:49.311Z,12.20
2023-03-08T12:12:03.429Z,10.38
2023-03-08T12:17:40.976Z,11.13
2023-03-08T12:22:46.006Z,12.50
2023-03-08T12:27:55.778Z,12.25
2023-03-08T12:33:00.154Z,12.45
2023-03-08T12:38:22.131Z,11.73
2023-03-08T12:43:23.718Z,10.82
2023-03-08T12:48:44.503Z,10.70
2023-03-08T12:53:49.088Z,11.25
2023-03-08T12:58:54.717Z,11.27
2023-03-08T13:03:56.645Z,10.93
2023-03-08T13:09:20.694Z,11.10
2023-03-08T13:14:38.236Z,10.23
2023-03-08T13:19:43.001Z,10.85
2023-03-08T13:24:56.389Z,9.95
2023-03-08T13:30:28.244Z,9.70
2023-03-08T13:35:29.927Z,9.15
2023-03-08T13:40:31.711Z,9.73
2023-03-08T13:45:33.398Z,8.75
2023-03-08T13:50:43.439Z,8.98
2023-03-08T13:55:47.873Z,9.55
2023-03-08T14:01:02.539Z,13.13
2023-03-08T14:06:14.765Z,9.30
2023-03-08T14:11:29.499Z,8.98
2023-03-08T14:16:34.310Z,9.45
2023-03-08T14:21:36.220Z,10.57
2023-03-08T14:26:41.047Z,9.27
2023-03-08T14:31:56.743Z,10.70
2023-03-08T14:37:03.049Z,10.05
2023-03-08T14:42:17.338Z,8.70
2023-03-08T14:47:31.170Z,9.65
2023-03-08T14:52:36.290Z,9.82
2023-03-08T14:57:38.126Z,10.07
2023-03-08T15:02:40.692Z,10.27
2023-03-08T15:07:43.736Z,10.50
2023-03-08T15:12:45.433Z,10.05
2023-03-08T15:17:47.666Z,9.80
2023-03-08T15:22:53.241Z,10.00
2023-03-08T15:27:55.203Z,9.82
2023-03-08T15:32:59.441Z,9.48
2023-03-08T15:38:01.248Z,9.95
2023-03-08T15:43:02.892Z,9.95
2023-03-08T15:48:07.148Z,10.15
2023-03-08T15:53:09.960Z,9.27
2023-03-08T15:58:12.133Z,9.52
2023-03-08T16:03:14.483Z,9.70
2023-03-08T16:08:16.105Z,8.52
2023-03-08T16:13:22.027Z,8.23
2023-03-08T16:18:23.780Z,8.75
2023-03-08T16:23:26.143Z,8.95
2023-03-08T16:28:28.581Z,8.65
2023-03-08T16:33:30.300Z,8.90
2023-03-08T16:38:32.090Z,8.40
2023-03-08T16:43:45.787Z,7.88
2023-03-08T16:48:50.263Z,7.10
2023-03-08T16:53:52.185Z,8.48
2023-03-08T16:58:55.407Z,8.13
2023-03-08T17:03:57.836Z,8.30
2023-03-08T17:08:59.624Z,7.60
2023-03-08T17:14:04.076Z,8.10
2023-03-08T17:19:07.529Z,8.40
2023-03-08T17:24:12.789Z,7.03
2023-03-08T17:29:15.100Z,7.07
2023-03-08T17:34:17.878Z,7.25
2023-03-08T17:39:19.925Z,6.93
2023-03-08T17:44:21.549Z,8.43
2023-03-08T17:49:25.015Z,8.52
2023-03-08T17:54:26.653Z,8.13
2023-03-08T17:59:28.486Z,8.68
2023-03-08T18:04:30.233Z,7.75
2023-03-08T18:09:32.427Z,9.80
2023-03-08T18:14:40.036Z,8.63
2023-03-08T18:19:42.991Z,8.60
2023-03-08T18:24:44.987Z,8.30
2023-03-08T18:29:46.669Z,8.98
2023-03-08T18:34:48.412Z,8.63
2023-03-08T18:39:54.638Z,8.60
2023-03-08T18:44:56.672Z,8.55
2023-03-08T18:49:58.309Z,8.27
2023-03-08T18:55:00.041Z,7.00
2023-03-08T19:00:03.020Z,7.90
2023-03-08T19:05:05.116Z,17.05
2023-03-08T19:10:07.058Z,16.17
2023-03-08T19:15:09.534Z,13.35
2023-03-08T19:20:11.788Z,8.60
2023-03-08T19:25:15.930Z,7.95
2023-03-08T19:30:17.927Z,8.38
2023-03-08T19:35:20.836Z,7.68
2023-03-08T19:40:22.642Z,8.20
2023-03-08T19:45:25.459Z,8.05
2023-03-08T19:50:27.822Z,8.02
2023-03-08T19:55:29.462Z,9.13
2023-03-08T20:00:31.126Z,8.82
2023-03-08T20:05:35.317Z,7.00
2023-03-08T20:10:37.404Z,5.25
2023-03-08T20:15:39.111Z,5.18
2023-03-08T20:20:40.896Z,5.88
2023-03-08T20:25:45.658Z,5.20
2023-03-08T20:30:48.349Z,5.32
2023-03-08T20:36:00.526Z,5.90
2023-03-08T20:41:12.243Z,5.05
2023-03-08T20:46:16.943Z,5.78
2023-03-08T20:51:20.911Z,3.78
2023-03-08T20:56:24.630Z,4.65
2023-03-08T21:01:32.175Z,4.15
2023-03-08T21:06:33.933Z,4.05
2023-03-08T21:11:35.668Z,4.90
2023-03-08T21:16:37.562Z,3.70
2023-03-08T21:21:41.512Z,3.90
2023-03-08T21:26:44.309Z,3.70
2023-03-08T21:31:51.446Z,3.92
2023-03-08T21:36:53.117Z,3.83
2023-03-08T21:41:57.102Z,3.70
2023-03-08T21:46:58.893Z,3.42
2023-03-08T21:52:01.175Z,3.60
2023-03-08T21:57:03.050Z,3.40
2023-03-08T22:02:04.979Z,4.00
2023-03-08T22:07:06.690Z,3.38
2023-03-08T22:12:08.682Z,3.42
2023-03-08T22:17:10.356Z,3.08
2023-03-08T22:22:12.147Z,3.35
2023-03-08T22:27:14.405Z,3.03
2023-03-08T22:32:16.108Z,2.90
2023-03-08T22:37:17.886Z,2.80
2023-03-08T22:42:19.548Z,2.90
2023-03-08T22:47:21.218Z,3.30
2023-03-08T22:52:23.546Z,3.10
2023-03-08T22:57:25.284Z,3.10
2023-03-08T23:02:28.451Z,3.47
2023-03-08T23:07:30.544Z,3.38
2023-03-08T23:12:32.329Z,3.40
2023-03-08T23:17:34.267Z,3.67
2023-03-08T23:22:35.925Z,3.45
2023-03-08T23:27:37.564Z,3.47
2023-03-08T23:32:39.503Z,2.78
2023-03-08T23:37:41.393Z,3.38
2023-03-08T23:42:43.060Z,3.20
2023-03-08T23:47:44.656Z,3.53
2023-03-08T23:52:46.401Z,3.45
2023-03-08T23:57:48.023Z,3.28
